sensor_id;sensor_type;location;lat;lon;timestamp;temperature;humidity
14884;DHT22;7534;50.762;7.000;2024-03-02T00:02:12;7.10;77.60
14884;DHT22;7534;50.762;7.000;2024-03-02T00:04:39;7.20;77.30
14884;DHT22;7534;50.762;7.000;2024-03-02T00:07:06;7.30;77.20
14884;DHT22;7534;50.762;7.000;2024-03-02T00:09:32;7.30;76.80
14884;DHT22;7534;50.762;7.000;2024-03-02T00:12:00;7.40;76.70
14884;DHT22;7534;50.762;7.000;2024-03-02T00:14:28;7.40;76.40
14884;DHT22;7534;50.762;7.000;2024-03-02T00:16:55;7.50;76.10
14884;DHT22;7534;50.762;7.000;2024-03-02T00:19:22;7.60;75.70
14884;DHT22;7534;50.762;7.000;2024-03-02T00:21:47;7.70;75.50
14884;DHT22;7534;50.762;7.000;2024-03-02T00:24:34;7.70;75.20
14884;DHT22;7534;50.762;7.000;2024-03-02T00:27:01;7.80;74.80
14884;DHT22;7534;50.762;7.000;2024-03-02T00:29:30;7.80;74.80
14884;DHT22;7534;50.762;7.000;2024-03-02T00:31:56;7.80;74.60
14884;DHT22;7534;50.762;7.000;2024-03-02T00:34:23;7.80;74.40
14884;DHT22;7534;50.762;7.000;2024-03-02T00:36:49;7.80;74.50
14884;DHT22;7534;50.762;7.000;2024-03-02T00:39:16;7.80;74.40
14884;DHT22;7534;50.762;7.000;2024-03-02T00:41:43;7.80;74.20
14884;DHT22;7534;50.762;7.000;2024-03-02T00:44:16;7.80;74.20
14884;DHT22;7534;50.762;7.000;2024-03-02T00:46:43;7.80;74.40
14884;DHT22;7534;50.762;7.000;2024-03-02T00:49:18;7.70;74.70
14884;DHT22;7534;50.762;7.000;2024-03-02T00:51:55;7.60;75.00
14884;DHT22;7534;50.762;7.000;2024-03-02T00:54:25;7.50;75.30
14884;DHT22;7534;50.762;7.000;2024-03-02T00:56:52;7.40;75.50
14884;DHT22;7534;50.762;7.000;2024-03-02T00:59:20;7.30;75.70
14884;DHT22;7534;50.762;7.000;2024-03-02T01:01:48;7.20;76.00
14884;DHT22;7534;50.762;7.000;2024-03-02T01:04:17;7.10;76.40
14884;DHT22;7534;50.762;7.000;2024-03-02T01:06:43;7.00;76.80
14884;DHT22;7534;50.762;7.000;2024-03-02T01:09:09;7.00;77.10
14884;DHT22;7534;50.762;7.000;2024-03-02T01:11:34;7.00;77.20
14884;DHT22;7534;50.762;7.000;2024-03-02T01:14:00;7.10;77.00
14884;DHT22;7534;50.762;7.000;2024-03-02T01:16:26;7.10;77.10
14884;DHT22;7534;50.762;7.000;2024-03-02T01:18:51;7.00;77.00
14884;DHT22;7534;50.762;7.000;2024-03-02T01:21:17;7.00;77.30
14884;DHT22;7534;50.762;7.000;2024-03-02T01:23:43;6.90;77.50
14884;DHT22;7534;50.762;7.000;2024-03-02T01:26:09;6.80;77.80
14884;DHT22;7534;50.762;7.000;2024-03-02T01:28:34;6.70;78.00
14884;DHT22;7534;50.762;7.000;2024-03-02T01:31:00;6.70;78.00
14884;DHT22;7534;50.762;7.000;2024-03-02T01:33:27;6.70;78.20
14884;DHT22;7534;50.762;7.000;2024-03-02T01:35:53;6.70;78.20
14884;DHT22;7534;50.762;7.000;2024-03-02T01:38:18;6.80;78.00
14884;DHT22;7534;50.762;7.000;2024-03-02T01:40:45;6.80;77.90
14884;DHT22;7534;50.762;7.000;2024-03-02T01:43:10;6.80;77.90
14884;DHT22;7534;50.762;7.000;2024-03-02T01:45:36;6.70;77.90
14884;DHT22;7534;50.762;7.000;2024-03-02T01:48:06;6.60;78.20
14884;DHT22;7534;50.762;7.000;2024-03-02T01:50:33;6.60;78.40
14884;DHT22;7534;50.762;7.000;2024-03-02T01:53:00;6.60;78.40
14884;DHT22;7534;50.762;7.000;2024-03-02T01:55:26;6.60;78.40
14884;DHT22;7534;50.762;7.000;2024-03-02T01:57:52;6.60;78.50
14884;DHT22;7534;50.762;7.000;2024-03-02T02:00:20;6.60;78.60
14884;DHT22;7534;50.762;7.000;2024-03-02T02:02:47;6.70;78.30
14884;DHT22;7534;50.762;7.000;2024-03-02T02:05:14;6.90;77.70
14884;DHT22;7534;50.762;7.000;2024-03-02T02:07:40;6.90;77.30
14884;DHT22;7534;50.762;7.000;2024-03-02T02:10:07;7.00;76.90
14884;DHT22;7534;50.762;7.000;2024-03-02T02:12:35;7.00;76.70
14884;DHT22;7534;50.762;7.000;2024-03-02T02:15:00;7.00;76.70
14884;DHT22;7534;50.762;7.000;2024-03-02T02:17:26;7.00;76.70
14884;DHT22;7534;50.762;7.000;2024-03-02T02:19:53;7.00;76.60
14884;DHT22;7534;50.762;7.000;2024-03-02T02:22:19;6.90;76.70
14884;DHT22;7534;50.762;7.000;2024-03-02T02:24:44;6.80;77.10
14884;DHT22;7534;50.762;7.000;2024-03-02T02:27:10;6.70;77.50
14884;DHT22;7534;50.762;7.000;2024-03-02T02:29:37;6.60;77.80
14884;DHT22;7534;50.762;7.000;2024-03-02T02:32:03;6.60;78.10
14884;DHT22;7534;50.762;7.000;2024-03-02T02:34:29;6.50;78.30
14884;DHT22;7534;50.762;7.000;2024-03-02T02:36:55;6.60;78.30
14884;DHT22;7534;50.762;7.000;2024-03-02T02:39:21;6.70;78.10
14884;DHT22;7534;50.762;7.000;2024-03-02T02:41:50;6.80;77.80
14884;DHT22;7534;50.762;7.000;2024-03-02T02:44:16;6.90;77.30
14884;DHT22;7534;50.762;7.000;2024-03-02T02:46:42;7.00;76.80
14884;DHT22;7534;50.762;7.000;2024-03-02T02:49:07;7.00;76.60
14884;DHT22;7534;50.762;7.000;2024-03-02T02:51:33;7.00;76.40
14884;DHT22;7534;50.762;7.000;2024-03-02T02:53:59;7.00;76.30
14884;DHT22;7534;50.762;7.000;2024-03-02T02:56:25;7.10;76.00
14884;DHT22;7534;50.762;7.000;2024-03-02T02:58:50;7.10;75.90
14884;DHT22;7534;50.762;7.000;2024-03-02T03:01:16;7.10;76.00
14884;DHT22;7534;50.762;7.000;2024-03-02T03:03:43;7.00;76.20
14884;DHT22;7534;50.762;7.000;2024-03-02T03:06:10;7.10;75.90
14884;DHT22;7534;50.762;7.000;2024-03-02T03:08:36;7.20;75.70
14884;DHT22;7534;50.762;7.000;2024-03-02T03:11:01;7.20;75.60
14884;DHT22;7534;50.762;7.000;2024-03-02T03:13:27;7.30;75.50
14884;DHT22;7534;50.762;7.000;2024-03-02T03:15:53;7.30;75.30
14884;DHT22;7534;50.762;7.000;2024-03-02T03:18:18;7.30;75.40
14884;DHT22;7534;50.762;7.000;2024-03-02T03:20:44;7.30;75.10
14884;DHT22;7534;50.762;7.000;2024-03-02T03:23:10;7.30;75.10
14884;DHT22;7534;50.762;7.000;2024-03-02T03:25:40;7.30;75.10
14884;DHT22;7534;50.762;7.000;2024-03-02T03:28:07;7.20;75.30
14884;DHT22;7534;50.762;7.000;2024-03-02T03:30:38;7.20;75.40
14884;DHT22;7534;50.762;7.000;2024-03-02T03:33:04;7.20;75.40
14884;DHT22;7534;50.762;7.000;2024-03-02T03:35:31;7.20;75.50
14884;DHT22;7534;50.762;7.000;2024-03-02T03:37:57;7.30;75.30
14884;DHT22;7534;50.762;7.000;2024-03-02T03:40:23;7.30;75.20
14884;DHT22;7534;50.762;7.000;2024-03-02T03:42:49;7.20;75.30
14884;DHT22;7534;50.762;7.000;2024-03-02T03:45:16;7.30;75.00
14884;DHT22;7534;50.762;7.000;2024-03-02T03:47:41;7.30;75.00
14884;DHT22;7534;50.762;7.000;2024-03-02T03:50:07;7.20;75.10
14884;DHT22;7534;50.762;7.000;2024-03-02T03:52:33;7.10;75.60
14884;DHT22;7534;50.762;7.000;2024-03-02T03:54:59;7.00;76.00
14884;DHT22;7534;50.762;7.000;2024-03-02T03:57:26;7.00;76.30
14884;DHT22;7534;50.762;7.000;2024-03-02T03:59:52;6.90;76.70
14884;DHT22;7534;50.762;7.000;2024-03-02T04:02:18;6.70;77.00
14884;DHT22;7534;50.762;7.000;2024-03-02T04:04:44;6.60;77.60
14884;DHT22;7534;50.762;7.000;2024-03-02T04:07:09;6.50;77.80
14884;DHT22;7534;50.762;7.000;2024-03-02T04:09:35;6.50;77.80
14884;DHT22;7534;50.762;7.000;2024-03-02T04:12:01;6.30;78.10
14884;DHT22;7534;50.762;7.000;2024-03-02T04:14:26;6.10;78.90
14884;DHT22;7534;50.762;7.000;2024-03-02T04:16:52;5.90;79.50
14884;DHT22;7534;50.762;7.000;2024-03-02T04:19:18;5.70;80.40
14884;DHT22;7534;50.762;7.000;2024-03-02T04:21:44;5.60;81.40
14884;DHT22;7534;50.762;7.000;2024-03-02T04:24:09;5.50;82.30
14884;DHT22;7534;50.762;7.000;2024-03-02T04:26:35;5.50;82.50
14884;DHT22;7534;50.762;7.000;2024-03-02T04:29:01;5.40;82.70
14884;DHT22;7534;50.762;7.000;2024-03-02T04:31:27;5.30;82.90
14884;DHT22;7534;50.762;7.000;2024-03-02T04:33:52;5.10;83.30
14884;DHT22;7534;50.762;7.000;2024-03-02T04:36:19;5.00;83.60
14884;DHT22;7534;50.762;7.000;2024-03-02T04:38:45;4.90;84.10
14884;DHT22;7534;50.762;7.000;2024-03-02T04:41:10;4.90;84.70
14884;DHT22;7534;50.762;7.000;2024-03-02T04:43:36;4.80;85.00
14884;DHT22;7534;50.762;7.000;2024-03-02T04:46:02;4.90;85.50
14884;DHT22;7534;50.762;7.000;2024-03-02T04:48:27;4.90;85.40
14884;DHT22;7534;50.762;7.000;2024-03-02T04:50:53;4.80;85.20
14884;DHT22;7534;50.762;7.000;2024-03-02T04:53:19;4.80;85.40
14884;DHT22;7534;50.762;7.000;2024-03-02T04:55:44;4.70;85.70
14884;DHT22;7534;50.762;7.000;2024-03-02T04:58:19;4.70;85.90
14884;DHT22;7534;50.762;7.000;2024-03-02T05:00:44;4.70;85.70
14884;DHT22;7534;50.762;7.000;2024-03-02T05:03:12;4.60;85.90
14884;DHT22;7534;50.762;7.000;2024-03-02T05:05:38;4.60;86.10
14884;DHT22;7534;50.762;7.000;2024-03-02T05:08:04;4.70;86.50
14884;DHT22;7534;50.762;7.000;2024-03-02T05:10:30;4.80;86.40
14884;DHT22;7534;50.762;7.000;2024-03-02T05:12:55;4.90;86.10
14884;DHT22;7534;50.762;7.000;2024-03-02T05:15:25;5.10;85.20
14884;DHT22;7534;50.762;7.000;2024-03-02T05:17:50;5.20;84.30
14884;DHT22;7534;50.762;7.000;2024-03-02T05:20:16;5.10;83.90
14884;DHT22;7534;50.762;7.000;2024-03-02T05:22:42;5.00;84.20
14884;DHT22;7534;50.762;7.000;2024-03-02T05:25:08;4.80;84.60
14884;DHT22;7534;50.762;7.000;2024-03-02T05:27:37;4.70;85.10
14884;DHT22;7534;50.762;7.000;2024-03-02T05:30:03;4.70;85.80
14884;DHT22;7534;50.762;7.000;2024-03-02T05:32:31;4.60;85.70
14884;DHT22;7534;50.762;7.000;2024-03-02T05:34:57;4.60;85.80
14884;DHT22;7534;50.762;7.000;2024-03-02T05:37:23;4.60;85.80
14884;DHT22;7534;50.762;7.000;2024-03-02T05:39:49;4.50;86.00
14884;DHT22;7534;50.762;7.000;2024-03-02T05:42:14;4.40;86.40
14884;DHT22;7534;50.762;7.000;2024-03-02T05:44:42;4.40;86.80
14884;DHT22;7534;50.762;7.000;2024-03-02T05:47:07;4.40;86.80
14884;DHT22;7534;50.762;7.000;2024-03-02T05:49:34;4.30;87.00
14884;DHT22;7534;50.762;7.000;2024-03-02T05:52:00;4.30;87.40
14884;DHT22;7534;50.762;7.000;2024-03-02T05:54:26;4.40;87.50
14884;DHT22;7534;50.762;7.000;2024-03-02T05:56:51;4.50;87.10
14884;DHT22;7534;50.762;7.000;2024-03-02T05:59:17;4.70;86.40
14884;DHT22;7534;50.762;7.000;2024-03-02T06:01:44;4.80;85.90
14884;DHT22;7534;50.762;7.000;2024-03-02T06:04:12;4.90;85.30
14884;DHT22;7534;50.762;7.000;2024-03-02T06:06:38;5.00;85.00
14884;DHT22;7534;50.762;7.000;2024-03-02T06:09:04;5.00;84.70
14884;DHT22;7534;50.762;7.000;2024-03-02T06:11:39;5.20;84.30
14884;DHT22;7534;50.762;7.000;2024-03-02T06:14:07;5.20;83.90
14884;DHT22;7534;50.762;7.000;2024-03-02T06:16:33;5.30;83.70
14884;DHT22;7534;50.762;7.000;2024-03-02T06:18:59;5.40;83.30
14884;DHT22;7534;50.762;7.000;2024-03-02T06:21:26;5.40;83.20
14884;DHT22;7534;50.762;7.000;2024-03-02T06:23:53;5.40;83.20
14884;DHT22;7534;50.762;7.000;2024-03-02T06:26:18;5.50;82.90
14884;DHT22;7534;50.762;7.000;2024-03-02T06:28:45;5.40;82.90
14884;DHT22;7534;50.762;7.000;2024-03-02T06:31:11;5.40;82.90
14884;DHT22;7534;50.762;7.000;2024-03-02T06:33:37;5.40;83.00
14884;DHT22;7534;50.762;7.000;2024-03-02T06:36:03;5.40;82.90
14884;DHT22;7534;50.762;7.000;2024-03-02T06:38:30;5.40;83.00
14884;DHT22;7534;50.762;7.000;2024-03-02T06:40:58;5.40;83.20
14884;DHT22;7534;50.762;7.000;2024-03-02T06:43:24;5.50;83.10
14884;DHT22;7534;50.762;7.000;2024-03-02T06:45:51;5.60;82.50
14884;DHT22;7534;50.762;7.000;2024-03-02T06:48:17;5.60;82.30
14884;DHT22;7534;50.762;7.000;2024-03-02T06:50:49;5.70;82.10
14884;DHT22;7534;50.762;7.000;2024-03-02T06:53:15;5.90;81.40
14884;DHT22;7534;50.762;7.000;2024-03-02T06:55:45;6.00;81.10
14884;DHT22;7534;50.762;7.000;2024-03-02T06:58:12;6.60;80.00
14884;DHT22;7534;50.762;7.000;2024-03-02T07:00:38;7.50;76.60
14884;DHT22;7534;50.762;7.000;2024-03-02T07:03:04;7.90;74.10
14884;DHT22;7534;50.762;7.000;2024-03-02T07:05:30;8.40;72.90
14884;DHT22;7534;50.762;7.000;2024-03-02T07:07:55;9.00;70.90
14884;DHT22;7534;50.762;7.000;2024-03-02T07:10:21;9.50;68.10
14884;DHT22;7534;50.762;7.000;2024-03-02T07:12:47;9.70;66.70
14884;DHT22;7534;50.762;7.000;2024-03-02T07:15:12;9.50;66.90
14884;DHT22;7534;50.762;7.000;2024-03-02T07:17:58;9.30;67.90
14884;DHT22;7534;50.762;7.000;2024-03-02T07:20:24;9.70;67.40
14884;DHT22;7534;50.762;7.000;2024-03-02T07:22:50;10.40;65.00
14884;DHT22;7534;50.762;7.000;2024-03-02T07:25:15;10.80;64.10
14884;DHT22;7534;50.762;7.000;2024-03-02T07:27:41;11.00;62.90
14884;DHT22;7534;50.762;7.000;2024-03-02T07:30:08;11.30;61.90
14884;DHT22;7534;50.762;7.000;2024-03-02T07:32:36;12.10;59.60
14884;DHT22;7534;50.762;7.000;2024-03-02T07:35:02;13.00;57.00
14884;DHT22;7534;50.762;7.000;2024-03-02T07:37:29;13.40;55.60
14884;DHT22;7534;50.762;7.000;2024-03-02T07:39:54;14.20;53.30
14884;DHT22;7534;50.762;7.000;2024-03-02T07:42:20;15.10;50.70
14884;DHT22;7534;50.762;7.000;2024-03-02T07:44:46;16.00;48.00
14884;DHT22;7534;50.762;7.000;2024-03-02T07:47:12;16.60;45.70
14884;DHT22;7534;50.762;7.000;2024-03-02T07:49:38;17.00;44.20
14884;DHT22;7534;50.762;7.000;2024-03-02T07:52:04;17.30;43.30
14884;DHT22;7534;50.762;7.000;2024-03-02T07:54:29;17.90;41.90
14884;DHT22;7534;50.762;7.000;2024-03-02T07:56:55;18.00;41.40
14884;DHT22;7534;50.762;7.000;2024-03-02T07:59:21;18.50;40.20
14884;DHT22;7534;50.762;7.000;2024-03-02T08:01:49;18.90;39.10
14884;DHT22;7534;50.762;7.000;2024-03-02T08:04:15;19.50;38.30
14884;DHT22;7534;50.762;7.000;2024-03-02T08:06:41;20.20;36.70
14884;DHT22;7534;50.762;7.000;2024-03-02T08:09:07;21.20;35.00
14884;DHT22;7534;50.762;7.000;2024-03-02T08:11:35;21.90;33.70
14884;DHT22;7534;50.762;7.000;2024-03-02T08:14:01;22.40;32.90
14884;DHT22;7534;50.762;7.000;2024-03-02T08:16:27;22.30;32.30
14884;DHT22;7534;50.762;7.000;2024-03-02T08:18:53;20.80;34.90
14884;DHT22;7534;50.762;7.000;2024-03-02T08:21:18;21.20;34.50
14884;DHT22;7534;50.762;7.000;2024-03-02T08:23:44;21.20;34.30
14884;DHT22;7534;50.762;7.000;2024-03-02T08:26:11;19.50;36.50
14884;DHT22;7534;50.762;7.000;2024-03-02T08:28:37;19.50;37.90
14884;DHT22;7534;50.762;7.000;2024-03-02T08:31:04;20.00;36.50
14884;DHT22;7534;50.762;7.000;2024-03-02T08:33:30;18.60;39.00
14884;DHT22;7534;50.762;7.000;2024-03-02T08:35:56;16.90;42.40
14884;DHT22;7534;50.762;7.000;2024-03-02T08:38:22;16.20;44.60
14884;DHT22;7534;50.762;7.000;2024-03-02T08:40:49;15.90;45.20
14884;DHT22;7534;50.762;7.000;2024-03-02T08:43:15;15.30;46.50
14884;DHT22;7534;50.762;7.000;2024-03-02T08:45:40;15.40;47.00
14884;DHT22;7534;50.762;7.000;2024-03-02T08:48:07;17.40;43.20
14884;DHT22;7534;50.762;7.000;2024-03-02T08:50:34;19.30;38.80
14884;DHT22;7534;50.762;7.000;2024-03-02T08:53:00;20.20;36.70
14884;DHT22;7534;50.762;7.000;2024-03-02T08:55:26;21.30;34.70
14884;DHT22;7534;50.762;7.000;2024-03-02T08:57:52;22.20;33.50
14884;DHT22;7534;50.762;7.000;2024-03-02T09:00:18;22.90;32.00
14884;DHT22;7534;50.762;7.000;2024-03-02T09:02:44;22.90;31.70
14884;DHT22;7534;50.762;7.000;2024-03-02T09:05:10;22.60;31.70
14884;DHT22;7534;50.762;7.000;2024-03-02T09:07:36;22.70;31.80
14884;DHT22;7534;50.762;7.000;2024-03-02T09:10:05;22.50;32.10
14884;DHT22;7534;50.762;7.000;2024-03-02T09:12:32;22.40;32.10
14884;DHT22;7534;50.762;7.000;2024-03-02T09:14:58;22.40;32.20
14884;DHT22;7534;50.762;7.000;2024-03-02T09:17:25;22.30;32.30
14884;DHT22;7534;50.762;7.000;2024-03-02T09:19:51;22.40;32.30
14884;DHT22;7534;50.762;7.000;2024-03-02T09:22:21;22.40;32.10
14884;DHT22;7534;50.762;7.000;2024-03-02T09:24:46;22.30;32.20
14884;DHT22;7534;50.762;7.000;2024-03-02T09:27:12;22.40;32.20
14884;DHT22;7534;50.762;7.000;2024-03-02T09:29:38;22.20;32.40
14884;DHT22;7534;50.762;7.000;2024-03-02T09:32:05;20.50;34.90
14884;DHT22;7534;50.762;7.000;2024-03-02T09:34:32;19.30;36.70
14884;DHT22;7534;50.762;7.000;2024-03-02T09:36:57;19.40;36.90
14884;DHT22;7534;50.762;7.000;2024-03-02T09:39:24;20.20;35.70
14884;DHT22;7534;50.762;7.000;2024-03-02T09:41:52;20.80;34.80
14884;DHT22;7534;50.762;7.000;2024-03-02T09:44:18;21.00;34.40
14884;DHT22;7534;50.762;7.000;2024-03-02T09:46:49;20.40;35.00
14884;DHT22;7534;50.762;7.000;2024-03-02T09:49:15;19.10;37.10
14884;DHT22;7534;50.762;7.000;2024-03-02T09:51:40;18.70;38.10
14884;DHT22;7534;50.762;7.000;2024-03-02T09:54:13;18.30;39.00
14884;DHT22;7534;50.762;7.000;2024-03-02T09:56:39;17.40;40.30
14884;DHT22;7534;50.762;7.000;2024-03-02T09:59:04;16.20;42.90
14884;DHT22;7534;50.762;7.000;2024-03-02T10:01:31;15.50;44.90
14884;DHT22;7534;50.762;7.000;2024-03-02T10:03:59;15.40;45.70
14884;DHT22;7534;50.762;7.000;2024-03-02T10:06:26;15.70;45.20
14884;DHT22;7534;50.762;7.000;2024-03-02T10:08:54;16.10;44.70
14884;DHT22;7534;50.762;7.000;2024-03-02T10:11:33;17.30;42.10
14884;DHT22;7534;50.762;7.000;2024-03-02T10:14:09;18.10;40.50
14884;DHT22;7534;50.762;7.000;2024-03-02T10:16:37;18.70;39.00
14884;DHT22;7534;50.762;7.000;2024-03-02T10:19:23;18.80;38.40
14884;DHT22;7534;50.762;7.000;2024-03-02T10:21:50;18.50;39.20
14884;DHT22;7534;50.762;7.000;2024-03-02T10:24:20;18.30;39.30
14884;DHT22;7534;50.762;7.000;2024-03-02T10:26:48;17.70;40.00
14884;DHT22;7534;50.762;7.000;2024-03-02T10:29:14;16.70;42.10
14884;DHT22;7534;50.762;7.000;2024-03-02T10:31:41;16.00;43.90
14884;DHT22;7534;50.762;7.000;2024-03-02T10:34:08;15.20;46.00
14884;DHT22;7534;50.762;7.000;2024-03-02T10:36:34;14.70;47.90
14884;DHT22;7534;50.762;7.000;2024-03-02T10:39:04;14.50;47.80
14884;DHT22;7534;50.762;7.000;2024-03-02T10:41:38;14.50;48.00
14884;DHT22;7534;50.762;7.000;2024-03-02T10:44:05;14.60;48.30
14884;DHT22;7534;50.762;7.000;2024-03-02T10:46:33;14.60;48.80
14884;DHT22;7534;50.762;7.000;2024-03-02T10:49:00;14.70;48.70
14884;DHT22;7534;50.762;7.000;2024-03-02T10:51:30;14.50;49.00
14884;DHT22;7534;50.762;7.000;2024-03-02T10:54:02;14.50;49.60
14884;DHT22;7534;50.762;7.000;2024-03-02T10:56:31;14.40;49.80
14884;DHT22;7534;50.762;7.000;2024-03-02T10:59:50;14.20;50.50
14884;DHT22;7534;50.762;7.000;2024-03-02T11:01:55;14.10;51.40
14884;DHT22;7534;50.762;7.000;2024-03-02T11:04:26;14.00;51.10
14884;DHT22;7534;50.762;7.000;2024-03-02T11:06:56;14.00;51.10
14884;DHT22;7534;50.762;7.000;2024-03-02T11:09:27;13.90;51.10
14884;DHT22;7534;50.762;7.000;2024-03-02T11:14:51;13.90;51.40
14884;DHT22;7534;50.762;7.000;2024-03-02T11:17:19;13.90;51.30
14884;DHT22;7534;50.762;7.000;2024-03-02T11:19:46;13.90;51.60
14884;DHT22;7534;50.762;7.000;2024-03-02T11:22:13;14.00;51.70
14884;DHT22;7534;50.762;7.000;2024-03-02T11:24:48;14.00;51.70
14884;DHT22;7534;50.762;7.000;2024-03-02T11:27:14;14.00;51.70
14884;DHT22;7534;50.762;7.000;2024-03-02T11:32:58;14.00;52.40
14884;DHT22;7534;50.762;7.000;2024-03-02T11:35:28;14.00;52.20
14884;DHT22;7534;50.762;7.000;2024-03-02T11:37:54;14.20;51.90
14884;DHT22;7534;50.762;7.000;2024-03-02T11:40:24;14.40;51.40
14884;DHT22;7534;50.762;7.000;2024-03-02T11:42:51;14.40;51.50
14884;DHT22;7534;50.762;7.000;2024-03-02T11:45:17;14.60;51.10
14884;DHT22;7534;50.762;7.000;2024-03-02T11:47:52;14.60;50.80
14884;DHT22;7534;50.762;7.000;2024-03-02T11:50:35;14.60;50.80
14884;DHT22;7534;50.762;7.000;2024-03-02T11:53:05;14.80;49.60
14884;DHT22;7534;50.762;7.000;2024-03-02T11:55:34;14.90;50.00
14884;DHT22;7534;50.762;7.000;2024-03-02T11:58:03;15.00;48.70
14884;DHT22;7534;50.762;7.000;2024-03-02T12:00:29;15.20;48.70
14884;DHT22;7534;50.762;7.000;2024-03-02T12:03:02;15.30;48.10
14884;DHT22;7534;50.762;7.000;2024-03-02T12:05:30;15.50;48.30
14884;DHT22;7534;50.762;7.000;2024-03-02T12:07:57;15.50;47.90
14884;DHT22;7534;50.762;7.000;2024-03-02T12:10:24;15.60;48.10
14884;DHT22;7534;50.762;7.000;2024-03-02T12:12:59;16.00;47.40
14884;DHT22;7534;50.762;7.000;2024-03-02T12:15:27;16.10;46.90
14884;DHT22;7534;50.762;7.000;2024-03-02T12:17:58;16.00;46.90
14884;DHT22;7534;50.762;7.000;2024-03-02T12:20:26;16.00;46.80
14884;DHT22;7534;50.762;7.000;2024-03-02T12:22:54;16.00;46.70
14884;DHT22;7534;50.762;7.000;2024-03-02T12:25:23;16.00;46.90
14884;DHT22;7534;50.762;7.000;2024-03-02T12:27:51;15.90;47.40
14884;DHT22;7534;50.762;7.000;2024-03-02T12:30:19;15.90;47.50
14884;DHT22;7534;50.762;7.000;2024-03-02T12:32:46;15.80;47.80
14884;DHT22;7534;50.762;7.000;2024-03-02T12:35:12;15.60;48.10
14884;DHT22;7534;50.762;7.000;2024-03-02T12:37:51;15.50;48.60
14884;DHT22;7534;50.762;7.000;2024-03-02T12:40:19;15.60;48.20
14884;DHT22;7534;50.762;7.000;2024-03-02T12:42:46;15.50;48.50
14884;DHT22;7534;50.762;7.000;2024-03-02T12:45:12;15.50;48.80
14884;DHT22;7534;50.762;7.000;2024-03-02T12:47:40;15.60;49.20
14884;DHT22;7534;50.762;7.000;2024-03-02T12:50:07;16.00;47.70
14884;DHT22;7534;50.762;7.000;2024-03-02T12:52:33;16.10;47.60
14884;DHT22;7534;50.762;7.000;2024-03-02T12:55:06;16.30;47.40
14884;DHT22;7534;50.762;7.000;2024-03-02T12:57:33;16.40;47.00
14884;DHT22;7534;50.762;7.000;2024-03-02T13:00:03;16.40;46.60
14884;DHT22;7534;50.762;7.000;2024-03-02T13:02:35;16.20;47.00
14884;DHT22;7534;50.762;7.000;2024-03-02T13:05:01;16.00;46.90
14884;DHT22;7534;50.762;7.000;2024-03-02T13:07:29;15.80;47.50
14884;DHT22;7534;50.762;7.000;2024-03-02T13:09:55;15.50;48.00
14884;DHT22;7534;50.762;7.000;2024-03-02T13:12:22;15.50;48.60
14884;DHT22;7534;50.762;7.000;2024-03-02T13:14:51;15.70;48.40
14884;DHT22;7534;50.762;7.000;2024-03-02T13:17:18;15.80;48.20
14884;DHT22;7534;50.762;7.000;2024-03-02T13:19:57;15.90;48.00
14884;DHT22;7534;50.762;7.000;2024-03-02T13:22:25;15.90;48.20
14884;DHT22;7534;50.762;7.000;2024-03-02T13:24:51;15.60;48.10
14884;DHT22;7534;50.762;7.000;2024-03-02T13:27:18;15.50;48.40
14884;DHT22;7534;50.762;7.000;2024-03-02T13:29:47;15.30;48.70
14884;DHT22;7534;50.762;7.000;2024-03-02T13:32:17;15.30;49.30
14884;DHT22;7534;50.762;7.000;2024-03-02T13:34:43;15.50;49.10
14884;DHT22;7534;50.762;7.000;2024-03-02T13:37:09;15.60;48.60
14884;DHT22;7534;50.762;7.000;2024-03-02T13:39:35;15.60;48.40
14884;DHT22;7534;50.762;7.000;2024-03-02T13:42:11;15.70;48.10
14884;DHT22;7534;50.762;7.000;2024-03-02T13:44:43;15.60;48.00
14884;DHT22;7534;50.762;7.000;2024-03-02T13:47:11;15.50;48.50
14884;DHT22;7534;50.762;7.000;2024-03-02T13:49:36;15.50;48.30
14884;DHT22;7534;50.762;7.000;2024-03-02T13:52:05;15.60;48.40
14884;DHT22;7534;50.762;7.000;2024-03-02T13:54:44;16.00;47.70
14884;DHT22;7534;50.762;7.000;2024-03-02T13:57:11;16.30;46.50
14884;DHT22;7534;50.762;7.000;2024-03-02T13:59:37;16.50;45.80
14884;DHT22;7534;50.762;7.000;2024-03-02T14:02:05;16.80;45.10
14884;DHT22;7534;50.762;7.000;2024-03-02T14:04:34;16.70;44.80
14884;DHT22;7534;50.762;7.000;2024-03-02T14:07:01;16.60;45.40
14884;DHT22;7534;50.762;7.000;2024-03-02T14:09:27;16.20;45.50
14884;DHT22;7534;50.762;7.000;2024-03-02T14:11:54;16.10;45.80
14884;DHT22;7534;50.762;7.000;2024-03-02T14:14:21;16.10;45.90
14884;DHT22;7534;50.762;7.000;2024-03-02T14:16:47;16.00;46.30
14884;DHT22;7534;50.762;7.000;2024-03-02T14:19:13;15.90;46.40
14884;DHT22;7534;50.762;7.000;2024-03-02T14:21:39;15.80;46.60
14884;DHT22;7534;50.762;7.000;2024-03-02T14:24:05;15.60;47.00
14884;DHT22;7534;50.762;7.000;2024-03-02T14:26:35;15.50;47.00
14884;DHT22;7534;50.762;7.000;2024-03-02T14:29:02;15.30;47.30
14884;DHT22;7534;50.762;7.000;2024-03-02T14:31:28;14.90;47.90
14884;DHT22;7534;50.762;7.000;2024-03-02T14:33:54;14.80;48.30
14884;DHT22;7534;50.762;7.000;2024-03-02T14:36:20;14.70;48.80
14884;DHT22;7534;50.762;7.000;2024-03-02T14:38:46;14.50;49.30
14884;DHT22;7534;50.762;7.000;2024-03-02T14:41:12;14.40;49.50
14884;DHT22;7534;50.762;7.000;2024-03-02T14:43:38;14.40;49.90
14884;DHT22;7534;50.762;7.000;2024-03-02T14:46:05;14.40;50.00
14884;DHT22;7534;50.762;7.000;2024-03-02T14:48:34;14.40;50.40
14884;DHT22;7534;50.762;7.000;2024-03-02T14:51:00;14.40;50.00
14884;DHT22;7534;50.762;7.000;2024-03-02T14:53:27;14.30;50.50
14884;DHT22;7534;50.762;7.000;2024-03-02T14:55:54;14.20;50.50
14884;DHT22;7534;50.762;7.000;2024-03-02T14:58:19;14.30;50.40
14884;DHT22;7534;50.762;7.000;2024-03-02T15:00:45;14.20;50.70
14884;DHT22;7534;50.762;7.000;2024-03-02T15:03:11;14.20;50.60
14884;DHT22;7534;50.762;7.000;2024-03-02T15:05:37;14.40;50.30
14884;DHT22;7534;50.762;7.000;2024-03-02T15:08:04;14.50;49.50
14884;DHT22;7534;50.762;7.000;2024-03-02T15:10:31;14.60;49.70
14884;DHT22;7534;50.762;7.000;2024-03-02T15:12:57;14.60;49.40
14884;DHT22;7534;50.762;7.000;2024-03-02T15:15:26;14.60;49.10
14884;DHT22;7534;50.762;7.000;2024-03-02T15:17:52;14.60;49.20
14884;DHT22;7534;50.762;7.000;2024-03-02T15:20:18;14.80;48.90
14884;DHT22;7534;50.762;7.000;2024-03-02T15:22:46;14.80;49.10
14884;DHT22;7534;50.762;7.000;2024-03-02T15:25:12;14.80;48.90
14884;DHT22;7534;50.762;7.000;2024-03-02T15:27:38;14.80;48.90
14884;DHT22;7534;50.762;7.000;2024-03-02T15:30:05;14.90;48.60
14884;DHT22;7534;50.762;7.000;2024-03-02T15:32:32;14.90;48.30
14884;DHT22;7534;50.762;7.000;2024-03-02T15:34:59;14.90;48.40
14884;DHT22;7534;50.762;7.000;2024-03-02T15:37:25;14.80;48.70
14884;DHT22;7534;50.762;7.000;2024-03-02T15:39:51;14.70;49.20
14884;DHT22;7534;50.762;7.000;2024-03-02T15:42:17;14.60;49.30
14884;DHT22;7534;50.762;7.000;2024-03-02T15:44:43;14.60;49.40
14884;DHT22;7534;50.762;7.000;2024-03-02T15:47:09;14.50;49.70
14884;DHT22;7534;50.762;7.000;2024-03-02T15:49:35;14.50;49.70
14884;DHT22;7534;50.762;7.000;2024-03-02T15:52:01;14.40;49.80
14884;DHT22;7534;50.762;7.000;2024-03-02T15:54:27;14.20;50.10
14884;DHT22;7534;50.762;7.000;2024-03-02T15:56:53;14.10;50.50
14884;DHT22;7534;50.762;7.000;2024-03-02T15:59:19;14.10;50.70